• Join FlightAware (Why Join?)
  • Login
  • US Flag 
04:12PM EDT


 

Airport Tracker/Info


-or-


 

Live Flight TrackerFlight Track Log ✈ GJS3706 ✈ 10-May-2013 ✈ KORD - KCVG

Flight Track Log - Related Links

Times and Time Zones

All times are in EDT time to prevent confusion due to time zone crossing. See the GJS3706 flight status page for this flight to view local times or setup timezone preferences in your user account.

Time Position Orientation Groundspeed Altitude Reporting Facility
EDT Latitude Longitude Course Direction KTS MPH feet Rate Location/Type
10:49AM 42.0000 -87.9500 159° South 163 188 2,600  Level Chicago TRACON
10:50AM 41.9667 -88.0167 236° Southwest 257 296 4,900 2,400 Climbing Chicago TRACON
10:51AM 41.9000 -87.9500 143° Southeast 292 336 7,500 2,580 Climbing Chicago TRACON
10:52AM 41.6778 -87.5527 159° South  Level Estimated
10:52AM 41.8511 -87.8850 135° Southeast 293 337 9,900  Level Chicago Center
10:53AM 41.6017 -87.4647 153° Southeast  Level Estimated
10:53AM 41.7783 -87.8275 149° Southeast 306 352 12,800  Level Chicago Center
10:54AM 41.5255 -87.3770 159° South  Level Estimated
10:54AM 41.6978 -87.7681 151° Southeast 326 375 14,800  Level Chicago Center
10:55AM 41.6075 -87.7031 152° Southeast 361 415 16,600 2,040 Climbing Chicago Center
10:56AM 41.5119 -87.6350 152° Southeast 383 441 19,100 2,100 Climbing Chicago Center
10:57AM 41.3922 -87.5681 157° South 399 459 21,000 900 Climbing Chicago Center
10:58AM 41.2769 -87.5483 173° South 415 478 21,000  Level Chicago Center
10:59AM 41.1650 -87.5003 162° South 435 501 21,000  Level Chicago Center
11:00AM 41.0611 -87.4136 148° Southeast 439 505 21,000  Level Chicago Center
11:01AM 40.9589 -87.3258 147° Southeast 439 505 21,000  Level Chicago Center
11:02AM 40.8567 -87.2389 147° Southeast 438 504 21,000  Level Chicago Center
11:03AM 40.7336 -87.1339 147° Southeast 441 507 21,000  Level Chicago Center
11:04AM 40.6386 -87.0536 147° Southeast 442 509 21,000  Level Chicago Center
11:05AM 40.5347 -86.9669 148° Southeast 443 510 21,000  Level Chicago Center
11:06AM 40.4314 -86.8792 147° Southeast 444 511 21,000  Level Chicago Center
11:07AM 40.3064 -86.7750 148° Southeast 445 512 21,000  Level Chicago Center
11:08AM 40.2017 -86.6881 148° Southeast 447 514 21,000  Level Chicago Center
11:09AM 40.1183 -86.6172 147° Southeast 444 511 21,000  Level Indianapolis Center
11:10AM 40.0142 -86.5308 148° Southeast 443 510 21,000  Level Indianapolis Center
11:11AM 39.9106 -86.4456 148° Southeast 443 510 21,000 -60 Level Indianapolis Center
11:12AM 39.8008 -86.3197 139° Southeast 455 524 20,900 -900 Descending Indianapolis Center
11:13AM 39.7667 -86.2000 110° East 443 510 19,400 -1,800 Descending Indianapolis TRACON
11:13AM 39.7333 -86.1333 123° Southeast 427 491 18,700 -1,740 Descending Indianapolis TRACON
11:14AM 39.7108 -86.0536 110° East 421 484 17,300 -2,100 Descending Indianapolis Center
11:15AM 39.6592 -85.9028 114° Southeast 384 442 14,900 -1,860 Descending Indianapolis Center
11:16AM 39.6189 -85.7833 114° Southeast 366 421 13,500 -1,320 Descending Indianapolis Center
11:17AM 39.5786 -85.6644 114° Southeast 364 419 12,200 -1,260 Descending Indianapolis Center
11:18AM 39.5411 -85.5542 114° Southeast 337 388 10,900 -660 Descending Indianapolis Center
11:19AM 39.4986 -85.4481 117° Southeast 330 380 10,900 -300 Level Indianapolis Center
11:20AM 39.4572 -85.3497 119° Southeast 316 364 10,400 -1,260 Descending Indianapolis Center
11:21AM 39.4250 -85.2308 109° East 296 341 8,400 -1,200 Descending Indianapolis Center
11:22AM 39.4011 -85.1358 108° East 283 326 8,000 -480 Descending Indianapolis Center
11:23AM 39.3753 -85.0386 109° East 287 330 7,500 -780 Descending Indianapolis Center
11:24AM 39.3500 -84.9394 108° East 290 334 6,500 -1,020 Descending Indianapolis Center
11:25AM 39.3242 -84.8453 109° East 290 334 5,500 -1,320 Descending Indianapolis Center
11:26AM 39.2944 -84.7339 109° East 281 323 3,900 -1,260 Descending Indianapolis Center
11:27AM 39.2500 -84.6667 130° Southeast 222 255 3,000 -480 Descending Cincinnati TRACON
11:28AM 39.2000 -84.6667 180° South 180 207 3,000 -180 Level Cincinnati TRACON
11:29AM 39.1500 -84.6667 180° South 173 199 2,700 -360 Descending Cincinnati TRACON